Time;durP1;ratioP1;P1;durP2;ratioP2;P2;SDS_P1;SDS_P2;PMS_P1;PMS_P2;Temp;Humidity;BMP_temperature;BMP_pressure;BME280_temperature;BME280_humidity;BME280_pressure;Samples;Min_cycle;Max_cycle;Signal;HPM_P1;HPM_P2
2022/12/27 00:01:59;;;;;;;7.47;4.50;;;;;;;3.53;78.88;101819.25;5115410;28;20184;-68
2022/12/27 00:04:26;;;;;;;8.97;5.10;;;;;;;3.58;78.59;101821.78;5115322;28;20212;-68
2022/12/27 00:06:53;;;;;;;4.27;3.97;;;;;;;3.59;78.29;101832.34;5115251;28;20276;-68
2022/12/27 00:09:20;;;;;;;7.53;5.13;;;;;;;3.57;78.70;101838.59;5115548;28;20181;-67
2022/12/27 00:11:47;;;;;;;8.17;5.10;;;;;;;3.52;79.07;101827.22;5115223;28;20192;-67
2022/12/27 00:14:13;;;;;;;16.47;4.97;;;;;;;3.51;79.34;101826.38;5115728;28;20184;-67
2022/12/27 00:16:40;;;;;;;12.53;5.83;;;;;;;3.59;79.20;101831.47;5114931;28;20211;-68
2022/12/27 00:19:06;;;;;;;6.60;4.70;;;;;;;3.51;79.40;101836.09;5115662;28;20541;-67
2022/12/27 00:21:33;;;;;;;4.40;4.10;;;;;;;3.59;78.69;101826.16;5114991;28;20663;-67
2022/12/27 00:24:00;;;;;;;8.27;5.20;;;;;;;3.58;79.56;101837.69;5115150;28;20240;-67
2022/12/27 00:26:29;;;;;;;9.20;5.80;;;;;;;3.60;79.32;101830.56;5114908;28;20221;-68
2022/12/27 00:28:56;;;;;;;7.47;5.67;;;;;;;3.60;79.40;101830.56;5114917;28;20194;-67
2022/12/27 00:31:25;;;;;;;6.20;5.93;;;;;;;3.53;78.96;101835.16;5114851;28;20188;-67
2022/12/27 00:33:54;;;;;;;16.20;4.93;;;;;;;3.54;79.04;101838.66;5115096;28;20212;-67
2022/12/27 00:36:23;;;;;;;8.73;5.40;;;;;;;3.49;79.23;101837.91;5114934;28;20605;-68
2022/12/27 00:38:50;;;;;;;6.53;5.10;;;;;;;3.55;79.77;101841.28;5115279;28;20270;-68
2022/12/27 00:41:18;;;;;;;5.23;4.47;;;;;;;3.57;79.07;101839.47;5114667;28;20199;-67
2022/12/27 00:43:45;;;;;;;5.83;4.57;;;;;;;3.52;79.38;101837.81;5114883;28;20676;-67
2022/12/27 00:46:12;;;;;;;4.53;4.23;;;;;;;3.51;79.20;101844.91;5114829;28;20205;-68
2022/12/27 00:48:39;;;;;;;5.93;4.33;;;;;;;3.41;79.60;101844.25;5114519;28;20196;-68
2022/12/27 00:51:10;;;;;;;6.30;4.30;;;;;;;3.44;79.13;101837.16;5114751;28;20184;-68
2022/12/27 00:53:37;;;;;;;11.73;5.73;;;;;;;3.48;80.04;101841.47;5114493;28;20251;-68
2022/12/27 00:56:19;;;;;;;6.93;5.57;;;;;;;3.49;80.10;101848.50;5114681;28;20267;-68
2022/12/27 00:58:45;;;;;;;12.17;6.07;;;;;;;3.52;80.43;101843.13;5114957;28;20476;-68
2022/12/27 01:01:17;;;;;;;6.43;5.13;;;;;;;3.54;79.54;101858.06;5114603;28;20190;-68
2022/12/27 01:03:44;;;;;;;10.83;5.50;;;;;;;3.59;80.06;101852.66;5114509;28;20559;-68
2022/12/27 01:06:13;;;;;;;14.60;5.87;;;;;;;3.53;79.81;101850.16;5114174;28;20204;-68
2022/12/27 01:08:40;;;;;;;9.97;5.40;;;;;;;3.45;80.57;101850.38;5114689;28;20189;-68
2022/12/27 01:11:08;;;;;;;8.10;5.33;;;;;;;3.50;80.19;101860.84;5114380;28;20273;-68
2022/12/27 01:13:34;;;;;;;15.73;5.50;;;;;;;3.55;80.61;101853.66;5114112;28;20186;-68
2022/12/27 01:16:01;;;;;;;6.47;5.40;;;;;;;3.47;80.49;101856.50;5113986;28;20218;-68
2022/12/27 01:18:27;;;;;;;12.33;5.00;;;;;;;3.50;80.47;101860.84;5114326;28;20185;-68
2022/12/27 01:20:54;;;;;;;9.80;6.10;;;;;;;3.54;81.05;101857.19;5113902;28;20196;-68
2022/12/27 01:23:20;;;;;;;8.17;5.73;;;;;;;3.43;80.19;101861.91;5113903;28;20208;-68
2022/12/27 01:25:46;;;;;;;12.57;6.43;;;;;;;3.39;81.10;101861.09;5113846;28;20694;-68
2022/12/27 01:28:13;;;;;;;7.03;6.03;;;;;;;3.41;81.00;101865.44;5113249;28;20233;-68
2022/12/27 01:30:39;;;;;;;5.03;4.70;;;;;;;3.47;81.28;101867.09;5114120;28;20195;-68
2022/12/27 01:33:06;;;;;;;6.77;5.13;;;;;;;3.45;80.87;101855.66;5113978;28;20669;-68
2022/12/27 01:35:32;;;;;;;6.77;5.03;;;;;;;3.46;81.26;101869.75;5113956;28;20210;-68
2022/12/27 01:37:59;;;;;;;11.70;6.07;;;;;;;3.40;81.00;101874.31;5113814;28;20186;-68
2022/12/27 01:40:25;;;;;;;6.67;5.37;;;;;;;3.38;80.58;101872.59;5114023;28;20192;-68
2022/12/27 01:42:51;;;;;;;9.57;5.53;;;;;;;3.27;81.62;101886.06;5113647;28;20206;-68
2022/12/27 01:45:19;;;;;;;5.67;5.17;;;;;;;3.30;81.76;101887.78;5113617;28;20216;-68
2022/12/27 01:48:11;;;;;;;6.10;5.50;;;;;;;3.30;81.59;101898.38;5113945;28;20185;-68
2022/12/27 01:50:45;;;;;;;6.93;5.80;;;;;;;3.27;82.09;101896.66;5113680;28;20539;-68
2022/12/27 01:53:21;;;;;;;6.67;5.23;;;;;;;3.29;82.29;101899.28;5113925;28;20187;-68
2022/12/27 01:55:53;;;;;;;15.23;6.47;;;;;;;3.38;82.19;101904.38;5113915;28;20289;-68
2022/12/27 01:58:34;;;;;;;9.97;5.10;;;;;;;3.43;81.72;101901.63;5113837;28;20188;-68
2022/12/27 02:01:02;;;;;;;10.10;5.20;;;;;;;3.47;81.92;101896.22;5113800;28;20186;-68
2022/12/27 02:03:37;;;;;;;12.03;5.60;;;;;;;3.49;81.55;101897.03;5113713;28;20208;-68
2022/12/27 02:06:07;;;;;;;8.57;4.87;;;;;;;3.53;82.04;101885.47;5113721;28;20219;-68
2022/12/27 02:09:06;;;;;;;6.00;5.50;;;;;;;3.57;81.17;101889.78;5114047;28;20165;-68
2022/12/27 02:11:50;;;;;;;8.83;5.40;;;;;;;3.63;81.18;101880.81;5113513;28;20179;-68
2022/12/27 02:14:21;;;;;;;7.93;4.53;;;;;;;3.62;81.31;101900.28;5113997;28;20203;-68
2022/12/27 02:16:55;;;;;;;9.13;4.90;;;;;;;3.70;81.53;101889.50;5113571;28;20204;-68
2022/12/27 02:19:40;;;;;;;13.27;5.50;;;;;;;3.74;81.87;101896.47;5113400;28;20722;-68
2022/12/27 02:22:19;;;;;;;12.63;5.20;;;;;;;3.68;81.97;101901.91;5095289;28;20208;-67
2022/12/27 02:24:52;;;;;;;5.90;5.30;;;;;;;3.67;81.97;101901.03;5113572;28;20191;-67
2022/12/27 02:27:44;;;;;;;9.83;4.83;;;;;;;3.70;81.58;101892.13;5113277;28;20211;-68
2022/12/27 02:30:12;;;;;;;8.33;5.47;;;;;;;3.71;82.16;101899.16;5113978;28;20176;-67
2022/12/27 02:32:51;;;;;;;18.43;5.60;;;;;;;3.74;81.96;101899.13;5113553;28;20222;-67
2022/12/27 02:35:30;;;;;;;9.40;5.70;;;;;;;3.72;82.54;101891.19;5113282;28;20189;-68
2022/12/27 02:38:01;;;;;;;11.63;5.87;;;;;;;3.70;82.37;101908.03;5113724;28;20259;-67
2022/12/27 02:54:55;;;;;;;9.33;5.67;;;;;;;3.59;82.52;101909.16;5117091;28;20180;-67
2022/12/27 02:57:38;;;;;;;8.97;4.83;;;;;;;3.60;83.05;101907.38;5116944;28;20206;-67
2022/12/27 03:03:22;;;;;;;6.70;4.73;;;;;;;3.60;83.22;101904.75;5116773;28;20196;-67
2022/12/27 03:18:26;;;;;;;10.10;5.57;;;;;;;3.75;82.82;101907.00;5116317;28;20260;-67
2022/12/27 03:26:33;;;;;;;5.07;4.63;;;;;;;3.68;83.01;101917.78;5116681;28;20774;-67
2022/12/27 03:34:43;;;;;;;8.40;4.90;;;;;;;3.74;83.86;101918.53;5116309;28;20509;-67
2022/12/27 03:40:17;;;;;;;9.93;5.20;;;;;;;3.75;83.62;101916.72;5116230;28;20192;-67
2022/12/27 03:48:38;;;;;;;6.70;4.93;;;;;;;3.85;83.51;101923.53;5116019;28;20191;-67
2022/12/27 03:51:06;;;;;;;5.27;3.77;;;;;;;3.86;83.74;101913.84;5115373;28;20276;-67
2022/12/27 03:53:42;;;;;;;11.43;4.40;;;;;;;3.88;84.09;101928.78;5115679;28;20188;-67
2022/12/27 03:56:08;;;;;;;8.47;5.13;;;;;;;3.85;84.24;101926.19;5115955;28;20292;-68
2022/12/27 03:58:35;;;;;;;5.60;4.60;;;;;;;3.84;83.76;101922.69;5115809;28;20188;-67
2022/12/27 04:01:02;;;;;;;6.03;4.63;;;;;;;3.87;84.15;101927.03;5115569;28;20273;-67
2022/12/27 04:03:28;;;;;;;6.50;3.93;;;;;;;3.83;83.72;101928.91;5115336;28;20213;-67
2022/12/27 04:05:55;;;;;;;9.17;4.10;;;;;;;3.79;83.92;101927.22;5115369;28;20202;-68
2022/12/27 04:35:50;;;;;;;4.13;3.17;;;;;;;3.79;84.45;101926.38;5115072;28;20286;-67
2022/12/27 04:38:16;;;;;;;10.33;4.47;;;;;;;3.78;84.53;101929.91;5115118;28;20530;-67
2022/12/27 04:55:18;;;;;;;6.37;3.73;;;;;;;3.85;83.88;101947.38;5115107;28;20168;-67
2022/12/27 04:57:45;;;;;;;4.10;3.83;;;;;;;3.77;84.37;101952.88;5114746;28;20176;-67
2022/12/27 05:02:59;;;;;;;4.07;3.80;;;;;;;3.93;84.26;101958.69;5098450;28;20188;-67
2022/12/27 05:05:26;;;;;;;4.80;4.23;;;;;;;3.89;83.95;101964.09;5114363;28;20212;-67
2022/12/27 05:16:07;;;;;;;7.00;4.47;;;;;;;3.86;83.89;101964.19;5114813;28;20216;-68
2022/12/27 05:18:34;;;;;;;5.90;4.13;;;;;;;3.84;84.23;101982.75;5114393;28;20524;-68
2022/12/27 05:21:02;;;;;;;6.60;4.37;;;;;;;3.87;84.49;101980.03;5114083;28;20703;-68
2022/12/27 05:26:22;;;;;;;5.27;3.47;;;;;;;4.00;84.01;101984.16;5114096;28;20207;-68
2022/12/27 05:28:51;;;;;;;3.43;3.30;;;;;;;4.00;84.28;101985.94;5114179;28;20266;-67
2022/12/27 05:31:19;;;;;;;7.60;4.17;;;;;;;4.00;83.50;101986.78;5114142;28;20187;-67
2022/12/27 05:33:46;;;;;;;4.87;4.37;;;;;;;4.04;83.79;101990.22;5114374;28;20543;-67
2022/12/27 05:36:12;;;;;;;7.67;3.83;;;;;;;4.02;83.93;102000.88;5113988;28;20215;-67
2022/12/27 05:38:38;;;;;;;4.97;4.57;;;;;;;4.00;84.21;102012.44;5113799;28;20562;-67
2022/12/27 05:41:05;;;;;;;5.20;4.90;;;;;;;3.99;84.06;102010.66;5114009;28;20199;-67
2022/12/27 05:43:32;;;;;;;5.23;4.53;;;;;;;4.00;84.85;102002.69;5113986;28;20183;-67
2022/12/27 05:46:08;;;;;;;9.40;4.47;;;;;;;4.03;84.21;102005.25;5113793;28;20708;-67
2022/12/27 05:48:35;;;;;;;6.17;4.60;;;;;;;4.09;84.50;101998.94;5113999;28;20248;-67
2022/12/27 05:51:05;;;;;;;9.00;4.17;;;;;;;4.11;83.43;101997.13;5113650;28;20204;-67
2022/12/27 05:53:32;;;;;;;4.43;4.23;;;;;;;4.12;83.98;102004.19;5113896;28;20180;-67
2022/12/27 05:55:59;;;;;;;9.53;5.27;;;;;;;4.17;83.35;102007.59;5113693;28;20214;-67
2022/12/27 05:58:26;;;;;;;5.43;5.03;;;;;;;4.11;83.68;102013.03;5113548;28;20188;-67
2022/12/27 06:00:52;;;;;;;14.27;4.43;;;;;;;4.12;83.92;102005.94;5113765;28;20597;-67
2022/12/27 06:03:19;;;;;;;4.40;4.07;;;;;;;4.15;84.45;102014.69;5113504;28;20184;-67
2022/12/27 06:05:46;;;;;;;5.77;4.77;;;;;;;4.19;83.91;102010.19;5113381;28;20212;-67
2022/12/27 06:08:13;;;;;;;12.30;4.90;;;;;;;4.17;83.92;102006.72;5113626;28;20272;-67
2022/12/27 06:10:39;;;;;;;10.90;4.87;;;;;;;4.13;84.35;102019.16;5113762;28;20195;-67
2022/12/27 06:13:06;;;;;;;7.80;4.43;;;;;;;4.14;83.99;102022.69;5113462;28;20189;-67
2022/12/27 06:15:32;;;;;;;4.73;4.30;;;;;;;4.08;84.57;102033.44;5116172;28;20213;-67
2022/12/27 06:18:02;;;;;;;9.57;4.90;;;;;;;4.06;84.62;102033.47;5118054;28;20180;-67
2022/12/27 06:20:28;;;;;;;7.00;4.57;;;;;;;4.05;84.64;102037.91;5117299;28;20193;-67
2022/12/27 06:22:57;;;;;;;10.03;4.50;;;;;;;4.05;84.77;102029.09;5118025;28;20169;-67
2022/12/27 06:25:24;;;;;;;10.50;4.40;;;;;;;4.04;84.33;102033.50;5117391;28;20201;-68
2022/12/27 06:27:50;;;;;;;4.63;4.17;;;;;;;4.05;84.39;102040.56;5117968;28;20280;-67
2022/12/27 06:30:16;;;;;;;11.53;5.33;;;;;;;4.02;84.52;102039.75;5117468;28;20184;-67
2022/12/27 06:32:43;;;;;;;5.10;4.57;;;;;;;4.02;84.77;102043.28;5117206;28;20181;-67
2022/12/27 06:35:10;;;;;;;11.73;5.10;;;;;;;3.96;84.60;102046.06;5117132;28;20178;-67
2022/12/27 06:37:38;;;;;;;5.50;5.20;;;;;;;3.96;84.49;102045.22;5117110;28;20182;-67
2022/12/27 06:40:05;;;;;;;10.40;5.57;;;;;;;3.97;84.05;102060.19;5117115;28;20549;-67
2022/12/27 06:42:31;;;;;;;12.97;5.70;;;;;;;4.00;84.75;102053.06;5116966;28;20188;-67
2022/12/27 06:44:57;;;;;;;13.53;6.53;;;;;;;4.02;84.16;102040.66;5117179;28;20212;-67
2022/12/27 06:47:24;;;;;;;14.97;5.87;;;;;;;4.03;84.40;102041.50;5116829;28;20208;-67
2022/12/27 06:49:50;;;;;;;6.43;5.17;;;;;;;3.96;84.68;102043.44;5117453;28;20207;-67
2022/12/27 06:52:16;;;;;;;11.27;6.20;;;;;;;3.92;84.75;102046.19;5117095;28;20185;-67
2022/12/27 06:54:43;;;;;;;5.47;5.07;;;;;;;3.87;84.59;102046.28;5117389;28;20183;-67
2022/12/27 06:57:09;;;;;;;5.23;4.83;;;;;;;3.90;84.04;102051.50;5116670;28;20719;-68
2022/12/27 06:59:35;;;;;;;8.83;4.43;;;;;;;3.84;85.10;102051.66;5116669;28;20546;-67
2022/12/27 07:02:02;;;;;;;7.97;5.27;;;;;;;3.88;84.57;102063.03;5116946;28;20185;-67
2022/12/27 07:04:28;;;;;;;5.40;4.73;;;;;;;3.82;84.57;102062.28;5116561;28;20209;-67
2022/12/27 07:06:55;;;;;;;13.00;4.10;;;;;;;3.76;84.97;102061.53;5116574;28;20219;-67
2022/12/27 07:09:22;;;;;;;16.57;4.40;;;;;;;3.81;85.50;102071.16;5117098;28;20185;-67
2022/12/27 07:11:48;;;;;;;9.93;4.67;;;;;;;3.91;85.09;102079.75;5116670;28;20201;-67
2022/12/27 07:14:14;;;;;;;12.47;5.97;;;;;;;3.89;84.87;102084.22;5116703;28;20192;-67
2022/12/27 07:16:41;;;;;;;9.13;5.57;;;;;;;3.90;85.43;102079.78;5116360;28;20207;-67
2022/12/27 07:19:08;;;;;;;8.17;6.43;;;;;;;3.85;85.58;102074.59;5116512;28;20177;-67
2022/12/27 07:21:35;;;;;;;13.13;5.60;;;;;;;3.84;85.06;102073.72;5116177;28;20201;-67
2022/12/27 07:24:02;;;;;;;5.80;5.20;;;;;;;3.78;85.69;102080.91;5116480;28;20562;-67
2022/12/27 07:26:29;;;;;;;5.60;5.13;;;;;;;3.77;85.59;102087.13;5115359;28;20212;-67
2022/12/27 07:28:58;;;;;;;5.50;5.13;;;;;;;3.79;84.85;102087.97;5098156;28;20222;-68
2022/12/27 07:31:28;;;;;;;5.40;4.90;;;;;;;3.81;84.90;102091.47;5116096;28;20212;-68
2022/12/27 07:33:56;;;;;;;5.77;5.23;;;;;;;3.75;85.34;102095.09;5116639;28;20177;-68
2022/12/27 07:36:32;;;;;;;15.63;5.27;;;;;;;3.68;85.89;102093.50;5115866;28;20201;-67
2022/12/27 07:38:58;;;;;;;4.67;4.57;;;;;;;3.77;85.77;102105.69;5115937;28;20267;-67
2022/12/27 07:41:25;;;;;;;5.97;5.47;;;;;;;3.67;85.26;102112.97;5115875;28;20650;-67
2022/12/27 07:43:52;;;;;;;11.80;5.03;;;;;;;3.68;85.69;102100.56;5116101;28;20203;-67
2022/12/27 07:46:20;;;;;;;10.63;5.07;;;;;;;3.65;85.83;102106.81;5116170;28;20239;-67
2022/12/27 07:48:47;;;;;;;8.73;4.67;;;;;;;3.62;86.40;102109.53;5115772;28;20549;-67
2022/12/27 07:51:15;;;;;;;13.33;5.03;;;;;;;3.67;85.97;102120.91;5116027;28;20201;-67
2022/12/27 07:53:42;;;;;;;7.67;4.77;;;;;;;3.74;85.68;102122.53;5115700;28;20560;-67
2022/12/27 07:56:13;;;;;;;6.97;5.23;;;;;;;3.84;85.98;102132.00;5115817;28;20211;-67
2022/12/27 07:58:46;;;;;;;12.23;5.20;;;;;;;3.89;85.34;102131.91;5115937;28;20565;-67
2022/12/27 08:01:14;;;;;;;14.27;6.00;;;;;;;3.96;85.36;102124.72;5115519;28;20190;-67
2022/12/27 08:03:41;;;;;;;5.63;5.03;;;;;;;3.91;84.83;102130.13;5115998;28;20187;-67
2022/12/27 08:06:17;;;;;;;6.27;4.70;;;;;;;3.93;85.57;102130.09;5115226;28;20640;-67
2022/12/27 08:08:44;;;;;;;7.77;5.80;;;;;;;3.93;85.89;102132.75;5116001;28;20174;-67
2022/12/27 08:11:10;;;;;;;15.67;4.60;;;;;;;3.96;85.16;102135.31;5115304;28;20199;-67
2022/12/27 08:13:38;;;;;;;6.23;4.70;;;;;;;3.97;85.33;102135.25;5115241;28;20189;-67
2022/12/27 08:16:05;;;;;;;10.90;5.13;;;;;;;4.05;85.06;102129.81;5115141;28;20204;-67
2022/12/27 08:18:32;;;;;;;5.13;4.60;;;;;;;4.00;85.39;102135.22;5115146;28;20267;-67
2022/12/27 08:20:58;;;;;;;12.73;5.20;;;;;;;4.00;84.84;102127.28;5115432;28;20201;-67
2022/12/27 08:23:24;;;;;;;5.33;5.03;;;;;;;4.06;85.14;102139.50;5115117;28;20187;-67
2022/12/27 08:25:51;;;;;;;5.07;4.67;;;;;;;4.07;84.62;102146.56;5115412;28;20217;-67
2022/12/27 08:28:17;;;;;;;10.40;5.43;;;;;;;4.09;84.96;102143.88;5115473;28;20191;-67
2022/12/27 08:30:45;;;;;;;7.17;5.40;;;;;;;4.11;84.41;102142.06;5114922;28;20288;-67
2022/12/27 08:33:13;;;;;;;9.93;4.73;;;;;;;4.09;84.79;102152.69;5114838;28;20242;-67
2022/12/27 08:35:42;;;;;;;5.07;4.67;;;;;;;4.14;84.62;102139.34;5115036;28;20696;-68
2022/12/27 08:38:19;;;;;;;5.33;4.93;;;;;;;4.10;84.81;102143.84;5115027;28;20577;-68
2022/12/27 08:40:45;;;;;;;12.70;4.90;;;;;;;4.10;85.33;102143.84;5115286;28;20708;-67
2022/12/27 08:43:13;;;;;;;8.03;4.60;;;;;;;4.14;84.58;102153.47;5115142;28;20187;-67
2022/12/27 08:45:39;;;;;;;4.67;4.13;;;;;;;4.15;84.55;102159.66;5114725;28;20570;-68
2022/12/27 08:48:06;;;;;;;5.20;4.10;;;;;;;4.18;85.14;102159.56;5115380;28;20216;-68
2022/12/27 08:50:33;;;;;;;6.53;4.87;;;;;;;4.20;84.85;102155.13;5114658;28;20195;-68
2022/12/27 08:53:01;;;;;;;11.77;4.70;;;;;;;4.21;84.92;102152.44;5115247;28;20181;-68
2022/12/27 08:55:29;;;;;;;10.33;5.73;;;;;;;4.32;85.17;102156.63;5115237;28;20209;-67
2022/12/27 08:57:56;;;;;;;7.77;6.10;;;;;;;4.40;84.87;102163.47;5114923;28;20268;-67
2022/12/27 09:00:23;;;;;;;11.50;5.80;;;;;;;4.43;84.82;102167.84;5114820;28;20199;-67
2022/12/27 09:02:49;;;;;;;12.10;5.87;;;;;;;4.50;84.49;102171.22;5114707;28;20187;-67
2022/12/27 09:05:17;;;;;;;10.50;5.93;;;;;;;4.55;84.05;102172.00;5114326;28;20201;-67
2022/12/27 09:07:44;;;;;;;10.47;5.80;;;;;;;4.57;83.79;102175.47;5114184;28;20191;-67
2022/12/27 09:10:10;;;;;;;9.67;6.13;;;;;;;4.61;84.35;102175.38;5114177;28;20192;-67
2022/12/27 09:12:37;;;;;;;13.77;6.73;;;;;;;4.61;84.03;102177.16;5114728;28;20254;-67
2022/12/27 09:15:04;;;;;;;7.07;5.80;;;;;;;4.67;83.62;102177.03;5114108;28;20185;-67
2022/12/27 09:17:30;;;;;;;12.60;6.57;;;;;;;4.72;83.44;102185.75;5114037;28;20209;-68
2022/12/27 09:19:57;;;;;;;12.50;7.47;;;;;;;4.66;83.79;102177.94;5113925;28;20189;-68
2022/12/27 09:22:23;;;;;;;10.13;6.13;;;;;;;4.72;83.33;102174.25;5114192;28;20651;-67
2022/12/27 09:24:50;;;;;;;8.77;5.83;;;;;;;4.70;82.75;102182.25;5114037;28;20189;-67
2022/12/27 09:27:16;;;;;;;7.23;5.67;;;;;;;4.68;82.66;102174.31;5113874;28;20717;-67
2022/12/27 09:29:42;;;;;;;12.20;6.37;;;;;;;4.72;83.12;102180.44;5095681;28;20201;-67
2022/12/27 09:32:13;;;;;;;9.43;6.13;;;;;;;4.79;83.00;102179.41;5114452;28;20256;-67
2022/12/27 09:34:40;;;;;;;9.40;5.60;;;;;;;4.86;83.00;102178.34;5114352;28;20174;-68
2022/12/27 09:37:06;;;;;;;9.20;5.83;;;;;;;4.91;83.13;102178.22;5113792;28;20205;-67
2022/12/27 09:39:33;;;;;;;11.60;6.07;;;;;;;4.97;83.25;102166.56;5113972;28;20536;-67
2022/12/27 09:42:17;;;;;;;18.27;6.47;;;;;;;5.04;82.24;102176.13;5113763;28;20188;-67
2022/12/27 09:45:33;;;;;;;9.80;6.03;;;;;;;5.13;81.90;102173.25;5113521;28;20216;-67
2022/12/27 09:48:10;;;;;;;10.73;5.60;;;;;;;5.19;82.13;102170.41;5114248;28;20177;-68
2022/12/27 09:50:47;;;;;;;10.30;6.30;;;;;;;5.19;82.37;102177.50;5113640;28;20227;-68
2022/12/27 09:53:19;;;;;;;13.77;6.50;;;;;;;5.21;81.87;102175.69;5114049;28;20169;-68
2022/12/27 09:55:50;;;;;;;13.43;5.97;;;;;;;5.38;82.09;102164.63;5113896;28;20201;-68
2022/12/27 09:58:41;;;;;;;18.67;6.77;;;;;;;5.35;81.54;102164.72;5114229;28;20180;-68
2022/12/27 10:01:25;;;;;;;13.13;6.57;;;;;;;5.37;81.62;102166.41;5113881;28;20203;-67
2022/12/27 10:03:52;;;;;;;17.77;5.93;;;;;;;5.46;80.75;102159.94;5114119;28;20603;-67
2022/12/27 10:06:31;;;;;;;11.23;7.17;;;;;;;5.54;81.20;102161.50;5113608;28;20224;-68
2022/12/27 10:09:16;;;;;;;6.37;5.73;;;;;;;5.60;81.20;102157.78;5113786;28;20608;-68
2022/12/27 10:12:07;;;;;;;9.97;6.27;;;;;;;5.65;81.03;102157.66;5113818;28;20237;-68
2022/12/27 10:14:59;;;;;;;8.20;6.40;;;;;;;5.59;80.98;102155.19;5113755;28;20175;-68
2022/12/27 10:17:59;;;;;;;9.17;6.53;;;;;;;5.72;81.14;102164.53;5113321;28;20205;-68
2022/12/27 10:20:44;;;;;;;8.30;6.07;;;;;;;5.80;80.79;102157.25;5113783;28;20571;-67
2022/12/27 10:23:15;;;;;;;13.97;6.30;;;;;;;5.88;80.11;102155.22;5113279;28;20735;-67
2022/12/27 10:25:44;;;;;;;8.83;5.20;;;;;;;5.98;80.17;102163.81;5113477;28;20653;-68
2022/12/27 10:28:18;;;;;;;11.73;5.83;;;;;;;5.97;80.03;102168.28;5113584;28;20189;-68
2022/12/27 10:30:44;;;;;;;5.00;4.70;;;;;;;6.13;79.05;102166.06;5113289;28;20181;-67
2022/12/27 10:33:26;;;;;;;8.27;5.57;;;;;;;6.12;79.36;102169.59;5113580;28;20185;-67
2022/12/27 10:35:53;;;;;;;7.63;5.40;;;;;;;6.03;79.00;102172.53;5113801;28;20608;-68
2022/12/27 10:38:20;;;;;;;9.63;5.73;;;;;;;5.92;79.02;102171.97;5113205;28;20189;-68
2022/12/27 10:41:12;;;;;;;9.17;5.20;;;;;;;5.94;79.36;102167.50;5113190;28;20278;-68
2022/12/27 10:43:41;;;;;;;11.77;5.73;;;;;;;5.96;79.22;102173.63;5095018;28;20204;-68
2022/12/27 10:46:25;;;;;;;5.47;5.07;;;;;;;6.07;79.36;102170.69;5112981;28;20213;-68
2022/12/27 10:49:22;;;;;;;4.77;4.50;;;;;;;6.27;79.55;102162.94;5113678;28;20230;-68
2022/12/27 10:51:51;;;;;;;7.73;4.60;;;;;;;6.22;78.11;102164.03;5113438;28;20281;-68
2022/12/27 10:54:26;;;;;;;15.33;5.57;;;;;;;6.21;78.86;102163.16;5113087;28;20216;-67
2022/12/27 10:56:54;;;;;;;10.30;5.13;;;;;;;6.22;78.25;102170.19;5113306;28;20232;-67
2022/12/27 10:59:24;;;;;;;13.27;5.13;;;;;;;6.34;78.31;102174.28;5112966;28;20189;-68
2022/12/27 11:01:59;;;;;;;8.83;4.77;;;;;;;6.33;78.42;102169.88;5114707;28;20183;-68
2022/12/27 11:04:27;;;;;;;13.53;4.93;;;;;;;6.26;78.37;102163.03;5116770;28;20190;-68
2022/12/27 11:06:58;;;;;;;10.93;5.53;;;;;;;6.38;78.11;102174.13;5116501;28;20685;-68
2022/12/27 11:09:39;;;;;;;6.77;5.00;;;;;;;6.41;78.20;102170.50;5117333;28;20227;-68
2022/12/27 11:12:22;;;;;;;9.73;5.00;;;;;;;6.50;77.85;102177.34;5116571;28;20186;-68
2022/12/27 11:14:58;;;;;;;9.43;5.90;;;;;;;6.45;77.62;102172.16;5116950;28;20177;-68
2022/12/27 11:17:35;;;;;;;9.60;5.53;;;;;;;6.38;77.66;102166.16;5116371;28;20287;-68
2022/12/27 11:20:11;;;;;;;7.87;5.00;;;;;;;6.49;77.91;102171.16;5116383;28;20223;-68
2022/12/27 11:22:52;;;;;;;8.93;4.93;;;;;;;6.59;77.82;102167.28;5116501;28;20264;-67
2022/12/27 11:25:19;;;;;;;9.73;5.13;;;;;;;6.66;76.75;102162.63;5116270;28;20220;-68
2022/12/27 11:27:48;;;;;;;19.43;5.50;;;;;;;6.73;77.12;102169.50;5117021;28;20185;-68
2022/12/27 11:30:25;;;;;;;18.23;5.07;;;;;;;6.80;77.47;102168.38;5116039;28;20196;-68
2022/12/27 11:32:52;;;;;;;7.53;4.53;;;;;;;6.79;76.03;102171.09;5116430;28;20184;-68
2022/12/27 11:35:21;;;;;;;11.93;5.57;;;;;;;6.69;77.08;102167.84;5116623;28;20181;-68
2022/12/27 11:37:49;;;;;;;9.73;3.73;;;;;;;6.59;76.83;102166.41;5116059;28;20185;-67
2022/12/27 11:40:33;;;;;;;4.80;3.87;;;;;;;6.62;76.83;102165.44;5116151;28;20189;-67
2022/12/27 11:43:09;;;;;;;7.37;4.60;;;;;;;6.59;76.85;102163.75;5116830;28;20227;-67
2022/12/27 11:45:40;;;;;;;6.13;3.63;;;;;;;6.66;76.97;102165.31;5116226;28;20254;-68
2022/12/27 11:48:23;;;;;;;4.20;3.97;;;;;;;6.80;76.23;102170.19;5116071;28;20181;-68
2022/12/27 11:51:04;;;;;;;8.03;4.13;;;;;;;6.76;76.52;102163.22;5116286;28;20177;-68
2022/12/27 11:53:46;;;;;;;9.10;4.83;;;;;;;6.80;75.70;102164.84;5115964;28;20180;-68
2022/12/27 11:56:24;;;;;;;5.17;4.73;;;;;;;6.82;76.63;102161.22;5115847;28;20209;-67
2022/12/27 11:59:19;;;;;;;9.23;5.63;;;;;;;6.84;76.05;102166.47;5115834;28;20177;-67
2022/12/27 12:02:05;;;;;;;6.73;5.27;;;;;;;6.85;75.78;102157.59;5115814;28;20196;-67
2022/12/27 12:04:40;;;;;;;6.03;5.37;;;;;;;6.92;75.74;102155.56;5116174;28;20682;-67
2022/12/27 12:07:13;;;;;;;7.77;4.60;;;;;;;6.95;76.06;102145.69;5115417;28;20770;-67
2022/12/27 12:09:55;;;;;;;8.53;5.00;;;;;;;7.06;76.30;102150.63;5116165;28;20201;-67
2022/12/27 12:12:43;;;;;;;10.93;5.33;;;;;;;7.20;76.83;102153.69;5115597;28;20180;-67
2022/12/27 12:15:38;;;;;;;5.70;4.77;;;;;;;7.34;74.89;102150.56;5115674;28;20177;-67
2022/12/27 12:18:26;;;;;;;10.40;5.70;;;;;;;7.48;75.57;102149.22;5115341;28;20177;-67
2022/12/27 12:21:34;;;;;;;9.73;4.93;;;;;;;7.56;75.59;102136.47;5115477;28;20196;-67
2022/12/27 12:24:23;;;;;;;4.40;4.13;;;;;;;7.45;74.18;102142.19;5053048;28;20231;-67
2022/12/27 12:27:04;;;;;;;11.13;5.07;;;;;;;7.30;75.20;102148.06;5053602;28;20301;-67
2022/12/27 12:29:53;;;;;;;14.60;4.53;;;;;;;7.13;74.33;102144.19;5098407;28;20201;-67
2022/12/27 12:32:37;;;;;;;11.37;4.53;;;;;;;7.03;75.58;102140.97;5115279;28;20174;-67
2022/12/27 12:35:34;;;;;;;8.57;4.53;;;;;;;7.07;75.46;102135.56;5114840;28;20524;-67
2022/12/27 12:38:03;;;;;;;10.97;4.73;;;;;;;7.07;76.28;102133.75;5115650;28;20196;-67
2022/12/27 12:40:44;;;;;;;4.50;4.20;;;;;;;7.02;75.67;102120.59;5115464;28;20583;-67
2022/12/27 12:43:11;;;;;;;8.30;5.23;;;;;;;6.96;75.94;102120.78;5115235;28;20208;-67
2022/12/27 12:46:17;;;;;;;4.63;4.13;;;;;;;6.98;76.28;102115.41;5114801;28;20201;-67
2022/12/27 12:49:02;;;;;;;7.30;4.20;;;;;;;6.91;76.12;102113.88;5114635;28;20582;-68
2022/12/27 12:51:45;;;;;;;11.27;4.07;;;;;;;6.92;75.90;102110.28;5114863;28;20268;-67
2022/12/27 12:54:40;;;;;;;3.83;3.63;;;;;;;6.93;76.15;102109.38;5115004;28;20166;-67
2022/12/27 12:57:31;;;;;;;5.33;3.83;;;;;;;6.90;76.51;102105.03;5114457;28;20204;-67
2022/12/27 13:00:22;;;;;;;4.80;4.50;;;;;;;6.89;76.21;102105.06;5115006;28;20174;-67
2022/12/27 13:03:16;;;;;;;7.20;4.40;;;;;;;6.93;76.15;102098.72;5114852;28;20182;-67
2022/12/27 13:06:01;;;;;;;4.20;4.00;;;;;;;6.84;75.61;102089.25;5114395;28;20203;-67
2022/12/27 13:08:40;;;;;;;6.37;3.63;;;;;;;6.82;76.36;102083.09;5114776;28;20173;-67
2022/12/27 13:11:32;;;;;;;4.60;3.50;;;;;;;6.73;76.79;102076.31;5114506;28;20172;-67
2022/12/27 13:14:20;;;;;;;7.47;4.03;;;;;;;6.69;76.26;102073.81;5114561;28;20181;-67
2022/12/27 13:17:05;;;;;;;6.20;3.20;;;;;;;6.71;76.65;102072.84;5114609;28;20205;-67
2022/12/27 13:19:43;;;;;;;4.00;3.67;;;;;;;6.64;76.79;102071.31;5114674;28;20472;-67
2022/12/27 13:22:24;;;;;;;4.93;3.83;;;;;;;6.65;77.15;102059.72;5114797;28;20553;-67
2022/12/27 13:25:09;;;;;;;5.07;4.30;;;;;;;6.60;77.07;102061.69;5113768;28;20184;-67
2022/12/27 13:27:48;;;;;;;4.00;3.67;;;;;;;6.67;77.03;102059.69;5114275;28;20193;-67
2022/12/27 13:30:21;;;;;;;4.80;3.07;;;;;;;6.55;77.77;102056.50;5114254;28;20181;-67
2022/12/27 13:33:06;;;;;;;13.43;3.47;;;;;;;6.57;77.61;102059.13;5114279;28;20531;-67
2022/12/27 13:35:47;;;;;;;7.00;2.97;;;;;;;6.65;77.52;102066.84;5114088;28;20675;-67
2022/12/27 13:38:36;;;;;;;6.80;3.23;;;;;;;6.63;77.64;102058.91;5113912;28;20547;-67
2022/12/27 13:41:20;;;;;;;7.30;3.20;;;;;;;6.64;77.30;102051.81;5114094;28;20176;-67
2022/12/27 13:44:10;;;;;;;4.60;3.27;;;;;;;6.66;77.57;102050.84;5097188;28;20189;-67